sensor_id;sensor_type;location;lat;lon;timestamp;pressure;altitude;pressure_sealevel;temperature;humidity
19831;BME280;10076;52.008;4.708;2023-03-04T00:00:30;102731.25;;;9.33;100.00
19831;BME280;10076;52.008;4.708;2023-03-04T00:02:56;102733.56;;;9.42;100.00
19831;BME280;10076;52.008;4.708;2023-03-04T00:05:21;102734.94;;;9.27;100.00
19831;BME280;10076;52.008;4.708;2023-03-04T00:07:47;102733.91;;;9.31;100.00
19831;BME280;10076;52.008;4.708;2023-03-04T00:10:12;102733.34;;;9.23;100.00
19831;BME280;10076;52.008;4.708;2023-03-04T00:12:37;102740.28;;;9.50;100.00
19831;BME280;10076;52.008;4.708;2023-03-04T00:15:03;102735.22;;;9.44;100.00
19831;BME280;10076;52.008;4.708;2023-03-04T00:17:28;102733.97;;;9.54;100.00
19831;BME280;10076;52.008;4.708;2023-03-04T00:19:56;102732.97;;;9.57;100.00
19831;BME280;10076;52.008;4.708;2023-03-04T00:22:22;102736.03;;;9.46;100.00
19831;BME280;10076;52.008;4.708;2023-03-04T00:24:53;102729.34;;;9.36;100.00
19831;BME280;10076;52.008;4.708;2023-03-04T00:27:18;102730.44;;;9.31;100.00
19831;BME280;10076;52.008;4.708;2023-03-04T00:29:44;102730.53;;;9.28;100.00
19831;BME280;10076;52.008;4.708;2023-03-04T00:32:09;102728.44;;;9.37;100.00
19831;BME280;10076;52.008;4.708;2023-03-04T00:34:35;102728.44;;;9.37;100.00
19831;BME280;10076;52.008;4.708;2023-03-04T00:37:00;102734.19;;;8.99;100.00
19831;BME280;10076;52.008;4.708;2023-03-04T00:39:27;102729.13;;;8.93;100.00
19831;BME280;10076;52.008;4.708;2023-03-04T00:41:53;102724.03;;;9.13;100.00
19831;BME280;10076;52.008;4.708;2023-03-04T00:44:18;102731.78;;;9.18;100.00
19831;BME280;10076;52.008;4.708;2023-03-04T00:46:44;102729.47;;;9.33;100.00
19831;BME280;10076;52.008;4.708;2023-03-04T00:49:09;102733.91;;;9.31;100.00
19831;BME280;10076;52.008;4.708;2023-03-04T00:51:34;102730.09;;;9.15;100.00
19831;BME280;10076;52.008;4.708;2023-03-04T00:53:59;102724.84;;;9.15;100.00
19831;BME280;10076;52.008;4.708;2023-03-04T00:56:25;102726.81;;;9.33;100.00
19831;BME280;10076;52.008;4.708;2023-03-04T00:58:50;102724.25;;;9.32;100.00
19831;BME280;10076;52.008;4.708;2023-03-04T01:01:15;102732.91;;;9.35;100.00
19831;BME280;10076;52.008;4.708;2023-03-04T01:03:41;102729.25;;;9.39;100.00
19831;BME280;10076;52.008;4.708;2023-03-04T01:06:06;102725.50;;;9.45;100.00
19831;BME280;10076;52.008;4.708;2023-03-04T01:08:32;102734.31;;;9.45;100.00
19831;BME280;10076;52.008;4.708;2023-03-04T01:10:57;102730.56;;;9.51;100.00
19831;BME280;10076;52.008;4.708;2023-03-04T01:13:22;102736.88;;;9.47;100.00
19831;BME280;10076;52.008;4.708;2023-03-04T01:15:48;102730.75;;;9.46;100.00
19831;BME280;10076;52.008;4.708;2023-03-04T01:18:13;102728.53;;;9.59;100.00
19831;BME280;10076;52.008;4.708;2023-03-04T01:20:38;102726.50;;;9.65;100.00
19831;BME280;10076;52.008;4.708;2023-03-04T01:23:03;102720.63;;;9.59;100.00
19831;BME280;10076;52.008;4.708;2023-03-04T01:25:29;102721.72;;;9.53;100.00
19831;BME280;10076;52.008;4.708;2023-03-04T01:27:54;102717.06;;;9.60;100.00
19831;BME280;10076;52.008;4.708;2023-03-04T01:30:20;102721.38;;;9.62;100.00
19831;BME280;10076;52.008;4.708;2023-03-04T01:32:45;102716.94;;;9.62;100.00
19831;BME280;10076;52.008;4.708;2023-03-04T01:35:10;102705.16;;;9.48;100.00
19831;BME280;10076;52.008;4.708;2023-03-04T01:37:36;102707.78;;;9.50;100.00
19831;BME280;10076;52.008;4.708;2023-03-04T01:40:01;102708.78;;;9.46;100.00
19831;BME280;10076;52.008;4.708;2023-03-04T01:42:29;102697.78;;;9.58;100.00
19831;BME280;10076;52.008;4.708;2023-03-04T01:44:55;102697.41;;;9.68;100.00
19831;BME280;10076;52.008;4.708;2023-03-04T01:47:23;102698.44;;;9.64;100.00
19831;BME280;10076;52.008;4.708;2023-03-04T01:49:53;102693.03;;;9.67;100.00
19831;BME280;10076;52.008;4.708;2023-03-04T01:52:20;102703.72;;;9.64;100.00
19831;BME280;10076;52.008;4.708;2023-03-04T01:54:46;102693.84;;;9.69;100.00
19831;BME280;10076;52.008;4.708;2023-03-04T01:57:17;102684.59;;;9.58;100.00
19831;BME280;10076;52.008;4.708;2023-03-04T01:59:43;102691.31;;;9.66;100.00
19831;BME280;10076;52.008;4.708;2023-03-04T02:02:09;102679.53;;;9.53;100.00
19831;BME280;10076;52.008;4.708;2023-03-04T02:04:35;102674.75;;;9.62;100.00
19831;BME280;10076;52.008;4.708;2023-03-04T02:07:01;102676.59;;;9.61;100.00
19831;BME280;10076;52.008;4.708;2023-03-04T02:09:29;102672.31;;;9.57;100.00
19831;BME280;10076;52.008;4.708;2023-03-04T02:11:55;102667.81;;;9.60;100.00
19831;BME280;10076;52.008;4.708;2023-03-04T02:14:20;102662.44;;;9.63;100.00
19831;BME280;10076;52.008;4.708;2023-03-04T02:16:47;102664.47;;;9.55;100.00
19831;BME280;10076;52.008;4.708;2023-03-04T02:19:21;102654.16;;;9.49;100.00
19831;BME280;10076;52.008;4.708;2023-03-04T02:21:49;102660.03;;;9.57;100.00
19831;BME280;10076;52.008;4.708;2023-03-04T02:24:20;102656.47;;;9.58;100.00
19831;BME280;10076;52.008;4.708;2023-03-04T02:26:49;102650.09;;;9.63;100.00
19831;BME280;10076;52.008;4.708;2023-03-04T02:29:15;102649.09;;;9.66;100.00
19831;BME280;10076;52.008;4.708;2023-03-04T02:31:46;102642.75;;;9.71;100.00
19831;BME280;10076;52.008;4.708;2023-03-04T02:34:18;102646.31;;;9.70;100.00
19831;BME280;10076;52.008;4.708;2023-03-04T02:36:44;102648.88;;;9.72;100.00
19831;BME280;10076;52.008;4.708;2023-03-04T02:39:21;102645.31;;;9.73;100.00
19831;BME280;10076;52.008;4.708;2023-03-04T02:41:48;102642.63;;;9.74;100.00
19831;BME280;10076;52.008;4.708;2023-03-04T02:44:17;102632.72;;;9.81;100.00
19831;BME280;10076;52.008;4.708;2023-03-04T02:46:43;102628.22;;;9.83;100.00
19831;BME280;10076;52.008;4.708;2023-03-04T02:49:09;102632.56;;;9.84;100.00
19831;BME280;10076;52.008;4.708;2023-03-04T02:51:34;102630.97;;;9.80;100.00
19831;BME280;10076;52.008;4.708;2023-03-04T02:53:59;102637.41;;;9.73;100.00
19831;BME280;10076;52.008;4.708;2023-03-04T02:56:24;102625.56;;;9.83;100.00
19831;BME280;10076;52.008;4.708;2023-03-04T02:58:50;102624.16;;;9.74;100.00
19831;BME280;10076;52.008;4.708;2023-03-04T03:01:15;102619.19;;;9.67;100.00
19831;BME280;10076;52.008;4.708;2023-03-04T03:03:40;102634.34;;;9.62;100.00
19831;BME280;10076;52.008;4.708;2023-03-04T03:06:06;102627.63;;;9.54;100.00
19831;BME280;10076;52.008;4.708;2023-03-04T03:08:31;102633.34;;;9.64;100.00
19831;BME280;10076;52.008;4.708;2023-03-04T03:10:56;102626.28;;;9.65;100.00
19831;BME280;10076;52.008;4.708;2023-03-04T03:13:22;102626.94;;;9.71;100.00
19831;BME280;10076;52.008;4.708;2023-03-04T03:15:47;102624.91;;;9.78;100.00
19831;BME280;10076;52.008;4.708;2023-03-04T03:18:13;102623.66;;;9.65;100.00
19831;BME280;10076;52.008;4.708;2023-03-04T03:20:38;102621.88;;;9.65;100.00
19831;BME280;10076;52.008;4.708;2023-03-04T03:23:04;102627.53;;;9.78;100.00
19831;BME280;10076;52.008;4.708;2023-03-04T03:25:30;102631.22;;;9.74;100.00
19831;BME280;10076;52.008;4.708;2023-03-04T03:27:56;102624.81;;;9.58;100.00
19831;BME280;10076;52.008;4.708;2023-03-04T03:30:21;102627.50;;;9.57;100.00
19831;BME280;10076;52.008;4.708;2023-03-04T03:32:47;102625.44;;;9.64;100.00
19831;BME280;10076;52.008;4.708;2023-03-04T03:35:12;102615.88;;;9.62;100.00
19831;BME280;10076;52.008;4.708;2023-03-04T03:37:37;102623.59;;;9.66;100.00
19831;BME280;10076;52.008;4.708;2023-03-04T03:40:03;102616.34;;;9.50;100.00
19831;BME280;10076;52.008;4.708;2023-03-04T03:42:29;102620.66;;;9.74;100.00
19831;BME280;10076;52.008;4.708;2023-03-04T03:44:54;102617.47;;;9.66;100.00
19831;BME280;10076;52.008;4.708;2023-03-04T03:47:20;102621.13;;;9.62;100.00
19831;BME280;10076;52.008;4.708;2023-03-04T03:49:45;102625.03;;;9.75;100.00
19831;BME280;10076;52.008;4.708;2023-03-04T03:52:10;102627.50;;;9.57;100.00
19831;BME280;10076;52.008;4.708;2023-03-04T03:54:36;102630.72;;;9.64;100.00
19831;BME280;10076;52.008;4.708;2023-03-04T03:57:01;102624.47;;;9.67;100.00
19831;BME280;10076;52.008;4.708;2023-03-04T03:59:27;102622.00;;;9.62;100.00
19831;BME280;10076;52.008;4.708;2023-03-04T04:01:52;102618.34;;;9.66;100.00
19831;BME280;10076;52.008;4.708;2023-03-04T04:04:17;102618.00;;;9.53;100.00
19831;BME280;10076;52.008;4.708;2023-03-04T04:06:43;102622.81;;;9.42;100.00
19831;BME280;10076;52.008;4.708;2023-03-04T04:09:08;102628.59;;;9.51;100.00
19831;BME280;10076;52.008;4.708;2023-03-04T04:11:33;102625.81;;;9.33;100.00
19831;BME280;10076;52.008;4.708;2023-03-04T04:13:59;102625.53;;;9.16;100.00
19831;BME280;10076;52.008;4.708;2023-03-04T04:16:24;102627.69;;;9.29;100.00
19831;BME280;10076;52.008;4.708;2023-03-04T04:18:49;102633.53;;;9.37;100.00
19831;BME280;10076;52.008;4.708;2023-03-04T04:21:15;102629.06;;;9.16;100.00
19831;BME280;10076;52.008;4.708;2023-03-04T04:23:40;102627.16;;;9.20;100.00
19831;BME280;10076;52.008;4.708;2023-03-04T04:26:05;102628.88;;;9.21;100.00
19831;BME280;10076;52.008;4.708;2023-03-04T04:28:31;102631.94;;;9.33;100.00
19831;BME280;10076;52.008;4.708;2023-03-04T04:30:56;102631.00;;;9.34;100.00
19831;BME280;10076;52.008;4.708;2023-03-04T04:33:22;102620.00;;;9.46;100.00
19831;BME280;10076;52.008;4.708;2023-03-04T04:35:47;102625.06;;;9.29;100.00
19831;BME280;10076;52.008;4.708;2023-03-04T04:38:14;102629.06;;;9.39;100.00
19831;BME280;10076;52.008;4.708;2023-03-04T04:40:39;102627.47;;;9.35;100.00
19831;BME280;10076;52.008;4.708;2023-03-04T04:43:05;102629.56;;;9.26;100.00
19831;BME280;10076;52.008;4.708;2023-03-04T04:45:31;102638.84;;;9.13;100.00
19831;BME280;10076;52.008;4.708;2023-03-04T04:47:56;102625.31;;;9.22;100.00
19831;BME280;10076;52.008;4.708;2023-03-04T04:50:26;102629.13;;;9.15;100.00
19831;BME280;10076;52.008;4.708;2023-03-04T04:52:51;102625.97;;;9.28;100.00
19831;BME280;10076;52.008;4.708;2023-03-04T04:55:17;102628.16;;;9.16;100.00
19831;BME280;10076;52.008;4.708;2023-03-04T04:57:42;102628.88;;;9.21;100.00
19831;BME280;10076;52.008;4.708;2023-03-04T05:00:08;102629.34;;;9.09;100.00
19831;BME280;10076;52.008;4.708;2023-03-04T05:02:34;102629.06;;;9.16;100.00
19831;BME280;10076;52.008;4.708;2023-03-04T05:05:04;102635.00;;;9.21;100.00
19831;BME280;10076;52.008;4.708;2023-03-04T05:07:30;102634.88;;;9.24;100.00
19831;BME280;10076;52.008;4.708;2023-03-04T05:09:55;102641.66;;;9.31;100.00
19831;BME280;10076;52.008;4.708;2023-03-04T05:12:20;102637.53;;;9.24;100.00
19831;BME280;10076;52.008;4.708;2023-03-04T05:14:46;102631.56;;;9.19;100.00
19831;BME280;10076;52.008;4.708;2023-03-04T05:17:11;102636.06;;;9.16;100.00
19831;BME280;10076;52.008;4.708;2023-03-04T05:19:36;102636.34;;;9.33;100.00
19831;BME280;10076;52.008;4.708;2023-03-04T05:22:01;102633.47;;;9.39;100.00
19831;BME280;10076;52.008;4.708;2023-03-04T05:24:27;102635.59;;;9.29;100.00
19831;BME280;10076;52.008;4.708;2023-03-04T05:26:52;102638.63;;;9.42;100.00
19831;BME280;10076;52.008;4.708;2023-03-04T05:29:17;102633.41;;;9.40;100.00
19831;BME280;10076;52.008;4.708;2023-03-04T05:31:43;102627.50;;;9.57;100.00
19831;BME280;10076;52.008;4.708;2023-03-04T05:34:08;102631.25;;;9.51;100.00
19831;BME280;10076;52.008;4.708;2023-03-04T05:36:33;102635.47;;;9.55;100.00
19831;BME280;10076;52.008;4.708;2023-03-04T05:38:59;102629.16;;;9.36;100.00
19831;BME280;10076;52.008;4.708;2023-03-04T05:41:24;102635.19;;;9.40;100.00
19831;BME280;10076;52.008;4.708;2023-03-04T05:43:50;102632.97;;;9.52;100.00
19831;BME280;10076;52.008;4.708;2023-03-04T05:46:17;102635.69;;;9.49;100.00
19831;BME280;10076;52.008;4.708;2023-03-04T05:48:42;102631.78;;;9.59;100.00
19831;BME280;10076;52.008;4.708;2023-03-04T05:51:08;102629.88;;;9.41;100.00
19831;BME280;10076;52.008;4.708;2023-03-04T05:53:33;102627.56;;;9.32;100.00
19831;BME280;10076;52.008;4.708;2023-03-04T05:56:06;102631.69;;;9.39;100.00
19831;BME280;10076;52.008;4.708;2023-03-04T05:58:32;102626.72;;;9.32;100.00
19831;BME280;10076;52.008;4.708;2023-03-04T06:01:01;102634.78;;;9.27;100.00
19831;BME280;10076;52.008;4.708;2023-03-04T06:03:26;102630.41;;;9.03;100.00
19831;BME280;10076;52.008;4.708;2023-03-04T06:05:52;102625.25;;;9.00;100.00
19831;BME280;10076;52.008;4.708;2023-03-04T06:08:18;102626.72;;;9.07;100.00
19831;BME280;10076;52.008;4.708;2023-03-04T06:10:43;102624.47;;;9.21;100.00
19831;BME280;10076;52.008;4.708;2023-03-04T06:13:09;102624.63;;;9.17;100.00
19831;BME280;10076;52.008;4.708;2023-03-04T06:15:34;102618.56;;;9.15;100.00
19831;BME280;10076;52.008;4.708;2023-03-04T06:18:00;102627.81;;;9.02;100.00
19831;BME280;10076;52.008;4.708;2023-03-04T06:20:25;102627.75;;;9.03;100.00
19831;BME280;10076;52.008;4.708;2023-03-04T06:22:51;102627.25;;;9.17;100.00
19831;BME280;10076;52.008;4.708;2023-03-04T06:25:16;102625.81;;;9.08;100.00
19831;BME280;10076;52.008;4.708;2023-03-04T06:27:42;102630.31;;;9.06;100.00
19831;BME280;10076;52.008;4.708;2023-03-04T06:30:07;102636.63;;;9.01;100.00
19831;BME280;10076;52.008;4.708;2023-03-04T06:32:33;102633.31;;;8.96;100.00
19831;BME280;10076;52.008;4.708;2023-03-04T06:34:58;102639.13;;;9.05;100.00
19831;BME280;10076;52.008;4.708;2023-03-04T06:37:23;102641.88;;;9.25;100.00
19831;BME280;10076;52.008;4.708;2023-03-04T06:39:49;102640.94;;;9.03;100.00
19831;BME280;10076;52.008;4.708;2023-03-04T06:42:14;102636.97;;;9.16;100.00
19831;BME280;10076;52.008;4.708;2023-03-04T06:44:40;102640.44;;;9.17;100.00
19831;BME280;10076;52.008;4.708;2023-03-04T06:47:06;102634.16;;;9.21;100.00
19831;BME280;10076;52.008;4.708;2023-03-04T06:49:31;102640.91;;;9.28;100.00
19831;BME280;10076;52.008;4.708;2023-03-04T06:51:57;102640.81;;;9.31;100.00
19831;BME280;10076;52.008;4.708;2023-03-04T06:54:22;102643.50;;;9.29;100.00
19831;BME280;10076;52.008;4.708;2023-03-04T06:56:47;102643.66;;;9.25;100.00
19831;BME280;10076;52.008;4.708;2023-03-04T06:59:13;102648.66;;;9.32;100.00
19831;BME280;10076;52.008;4.708;2023-03-04T07:01:38;102645.78;;;9.38;100.00
19831;BME280;10076;52.008;4.708;2023-03-04T07:04:04;102656.72;;;9.51;100.00
19831;BME280;10076;52.008;4.708;2023-03-04T07:06:29;102645.03;;;9.58;100.00
19831;BME280;10076;52.008;4.708;2023-03-04T07:08:55;102648.38;;;9.62;100.00
19831;BME280;10076;52.008;4.708;2023-03-04T07:11:22;102646.25;;;9.72;100.00
19831;BME280;10076;52.008;4.708;2023-03-04T07:13:48;102648.81;;;9.73;100.00
19831;BME280;10076;52.008;4.708;2023-03-04T07:16:16;102650.19;;;9.83;100.00
19831;BME280;10076;52.008;4.708;2023-03-04T07:18:43;102652.84;;;9.83;100.00
19831;BME280;10076;52.008;4.708;2023-03-04T07:21:08;102656.91;;;9.69;100.00
19831;BME280;10076;52.008;4.708;2023-03-04T07:23:35;102661.28;;;9.70;100.00
19831;BME280;10076;52.008;4.708;2023-03-04T07:26:01;102656.91;;;9.69;100.00
19831;BME280;10076;52.008;4.708;2023-03-04T07:28:29;102668.78;;;9.58;100.00
19831;BME280;10076;52.008;4.708;2023-03-04T07:30:55;102667.81;;;9.60;100.00
19831;BME280;10076;52.008;4.708;2023-03-04T07:33:20;102673.13;;;9.59;100.00
19831;BME280;10076;52.008;4.708;2023-03-04T07:35:45;102674.13;;;9.56;100.00
19831;BME280;10076;52.008;4.708;2023-03-04T07:38:11;102669.19;;;9.47;100.00
19831;BME280;10076;52.008;4.708;2023-03-04T07:40:36;102676.53;;;9.39;100.00
19831;BME280;10076;52.008;4.708;2023-03-04T07:43:02;102671.34;;;9.36;100.00
19831;BME280;10076;52.008;4.708;2023-03-04T07:45:27;102681.94;;;9.35;100.00
19831;BME280;10076;52.008;4.708;2023-03-04T07:47:53;102679.38;;;9.33;100.00
19831;BME280;10076;52.008;4.708;2023-03-04T07:50:19;102678.06;;;9.45;100.00
19831;BME280;10076;52.008;4.708;2023-03-04T07:52:46;102685.47;;;9.35;100.00
19831;BME280;10076;52.008;4.708;2023-03-04T07:55:14;102685.13;;;9.44;100.00
19831;BME280;10076;52.008;4.708;2023-03-04T07:57:40;102698.44;;;9.64;100.00
19831;BME280;10076;52.008;4.708;2023-03-04T08:00:07;102694.13;;;9.84;100.00
19831;BME280;10076;52.008;4.708;2023-03-04T08:02:32;102691.78;;;10.00;100.00
19831;BME280;10076;52.008;4.708;2023-03-04T08:04:57;102698.44;;;10.10;100.00
19831;BME280;10076;52.008;4.708;2023-03-04T08:07:23;102695.25;;;10.23;100.00
19831;BME280;10076;52.008;4.708;2023-03-04T08:09:48;102692.00;;;10.38;100.00
19831;BME280;10076;52.008;4.708;2023-03-04T08:12:14;102698.06;;;10.61;100.00
19831;BME280;10076;52.008;4.708;2023-03-04T08:14:39;102697.41;;;10.56;100.00
19831;BME280;10076;52.008;4.708;2023-03-04T08:17:05;102701.31;;;10.68;100.00
19831;BME280;10076;52.008;4.708;2023-03-04T08:19:30;102702.78;;;10.75;100.00
19831;BME280;10076;52.008;4.708;2023-03-04T08:21:55;102698.28;;;10.77;100.00
19831;BME280;10076;52.008;4.708;2023-03-04T08:24:21;102699.91;;;10.59;100.00
19831;BME280;10076;52.008;4.708;2023-03-04T08:26:48;102695.59;;;10.57;100.00
19831;BME280;10076;52.008;4.708;2023-03-04T08:29:17;102699.91;;;10.59;100.00
19831;BME280;10076;52.008;4.708;2023-03-04T08:31:44;102699.94;;;10.79;100.00
19831;BME280;10076;52.008;4.708;2023-03-04T08:34:10;102701.72;;;10.79;100.00
19831;BME280;10076;52.008;4.708;2023-03-04T08:36:37;102700.13;;;10.75;100.00
19831;BME280;10076;52.008;4.708;2023-03-04T08:39:03;102697.38;;;10.98;100.00
19831;BME280;10076;52.008;4.708;2023-03-04T08:41:29;102697.53;;;10.95;100.00
19831;BME280;10076;52.008;4.708;2023-03-04T08:43:54;102709.13;;;10.91;100.00
19831;BME280;10076;52.008;4.708;2023-03-04T08:46:20;102702.19;;;11.28;100.00
19831;BME280;10076;52.008;4.708;2023-03-04T08:48:45;102694.06;;;11.32;100.00
19831;BME280;10076;52.008;4.708;2023-03-04T08:51:13;102695.44;;;11.61;100.00
19831;BME280;10076;52.008;4.708;2023-03-04T08:53:39;102700.47;;;11.85;100.00
19831;BME280;10076;52.008;4.708;2023-03-04T08:56:06;102697.19;;;11.98;100.00
19831;BME280;10076;52.008;4.708;2023-03-04T08:58:32;102696.59;;;12.10;100.00
19831;BME280;10076;52.008;4.708;2023-03-04T09:00:59;102693.72;;;12.33;100.00
19831;BME280;10076;52.008;4.708;2023-03-04T09:03:25;102690.53;;;12.43;100.00
19831;BME280;10076;52.008;4.708;2023-03-04T09:05:50;102694.22;;;12.58;100.00
19831;BME280;10076;52.008;4.708;2023-03-04T09:08:16;102689.50;;;12.29;100.00
19831;BME280;10076;52.008;4.708;2023-03-04T09:10:41;102681.72;;;11.89;100.00
19831;BME280;10076;52.008;4.708;2023-03-04T09:13:06;102687.22;;;11.47;100.00
19831;BME280;10076;52.008;4.708;2023-03-04T09:15:32;102684.31;;;11.33;100.00
19831;BME280;10076;52.008;4.708;2023-03-04T09:18:02;102680.91;;;11.11;100.00
19831;BME280;10076;52.008;4.708;2023-03-04T09:20:29;102679.84;;;11.35;100.00
19831;BME280;10076;52.008;4.708;2023-03-04T09:22:55;102682.41;;;11.93;100.00
19831;BME280;10076;52.008;4.708;2023-03-04T09:25:20;102681.69;;;12.26;100.00
19831;BME280;10076;52.008;4.708;2023-03-04T09:27:45;102689.91;;;12.39;100.00
19831;BME280;10076;52.008;4.708;2023-03-04T09:30:11;102681.59;;;12.63;100.00
19831;BME280;10076;52.008;4.708;2023-03-04T09:32:37;102674.28;;;12.85;100.00
19831;BME280;10076;52.008;4.708;2023-03-04T09:35:03;102682.44;;;12.99;100.00
19831;BME280;10076;52.008;4.708;2023-03-04T09:37:28;102672.56;;;12.84;100.00
19831;BME280;10076;52.008;4.708;2023-03-04T09:39:54;102679.41;;;12.54;100.00
19831;BME280;10076;52.008;4.708;2023-03-04T09:42:30;102680.25;;;12.38;100.00
19831;BME280;10076;52.008;4.708;2023-03-04T09:44:57;102679.84;;;12.28;100.00
19831;BME280;10076;52.008;4.708;2023-03-04T09:47:23;102673.28;;;12.18;100.00
19831;BME280;10076;52.008;4.708;2023-03-04T09:50:02;102682.00;;;12.02;100.00
19831;BME280;10076;52.008;4.708;2023-03-04T09:55:35;102676.97;;;11.59;100.00
19831;BME280;10076;52.008;4.708;2023-03-04T10:03:50;102684.41;;;12.77;100.00
19831;BME280;10076;52.008;4.708;2023-03-04T10:06:19;102681.00;;;12.75;100.00
19831;BME280;10076;52.008;4.708;2023-03-04T10:13:52;102678.19;;;12.78;100.00
19831;BME280;10076;52.008;4.708;2023-03-04T10:16:21;102676.81;;;13.21;100.00
19831;BME280;10076;52.008;4.708;2023-03-04T10:18:55;102671.97;;;15.13;100.00
19831;BME280;10076;52.008;4.708;2023-03-04T10:21:29;102685.09;;;18.52;100.00
19831;BME280;10076;52.008;4.708;2023-03-04T10:23:58;102683.44;;;20.28;100.00
19831;BME280;10076;52.008;4.708;2023-03-04T10:26:28;102679.44;;;20.65;100.00
19831;BME280;10076;52.008;4.708;2023-03-04T10:28:55;102676.28;;;19.52;100.00
19831;BME280;10076;52.008;4.708;2023-03-04T10:31:30;102673.63;;;18.14;100.00
19831;BME280;10076;52.008;4.708;2023-03-04T10:33:56;102666.50;;;17.41;100.00
19831;BME280;10076;52.008;4.708;2023-03-04T10:39:06;102671.78;;;15.99;100.00
19831;BME280;10076;52.008;4.708;2023-03-04T10:41:32;102671.69;;;16.28;100.00
19831;BME280;10076;52.008;4.708;2023-03-04T10:44:15;102673.19;;;16.71;100.00
19831;BME280;10076;52.008;4.708;2023-03-04T10:46:46;102661.22;;;16.64;100.00
19831;BME280;10076;52.008;4.708;2023-03-04T10:49:16;102665.63;;;15.85;100.00
19831;BME280;10076;52.008;4.708;2023-03-04T10:51:45;102659.56;;;15.27;100.00
19831;BME280;10076;52.008;4.708;2023-03-04T10:54:27;102664.09;;;14.52;100.00
19831;BME280;10076;52.008;4.708;2023-03-04T10:57:03;102655.44;;;13.87;100.00
19831;BME280;10076;52.008;4.708;2023-03-04T11:07:24;102643.09;;;14.77;100.00
19831;BME280;10076;52.008;4.708;2023-03-04T11:09:50;102640.47;;;14.91;100.00
19831;BME280;10076;52.008;4.708;2023-03-04T11:12:19;102640.09;;;14.97;100.00
19831;BME280;10076;52.008;4.708;2023-03-04T11:14:47;102637.44;;;14.97;100.00
19831;BME280;10076;52.008;4.708;2023-03-04T11:19:59;102641.44;;;14.61;100.00
19831;BME280;10076;52.008;4.708;2023-03-04T11:22:27;102635.31;;;13.68;100.00
19831;BME280;10076;52.008;4.708;2023-03-04T11:24:57;102631.00;;;13.18;100.00
19831;BME280;10076;52.008;4.708;2023-03-04T11:27:29;102638.41;;;12.61;100.00
19831;BME280;10076;52.008;4.708;2023-03-04T11:32:48;102640.25;;;12.42;100.00
19831;BME280;10076;52.008;4.708;2023-03-04T11:35:26;102632.50;;;12.90;100.00
19831;BME280;10076;52.008;4.708;2023-03-04T11:38:09;102631.63;;;14.32;100.00
19831;BME280;10076;52.008;4.708;2023-03-04T11:40:48;102636.44;;;14.70;100.00
19831;BME280;10076;52.008;4.708;2023-03-04T11:43:28;102627.72;;;14.53;100.00
19831;BME280;10076;52.008;4.708;2023-03-04T11:49:00;102627.72;;;15.25;100.00
19831;BME280;10076;52.008;4.708;2023-03-04T11:56:59;102618.38;;;14.75;100.00
19831;BME280;10076;52.008;4.708;2023-03-04T12:13:16;102603.69;;;14.10;100.00
19831;BME280;10076;52.008;4.708;2023-03-04T12:16:03;102607.56;;;14.20;100.00
19831;BME280;10076;52.008;4.708;2023-03-04T12:21:45;102596.22;;;17.04;100.00
19831;BME280;10076;52.008;4.708;2023-03-04T12:27:20;102588.16;;;22.14;100.00
19831;BME280;10076;52.008;4.708;2023-03-04T12:29:57;102579.19;;;21.85;100.00
19831;BME280;10076;52.008;4.708;2023-03-04T12:32:53;102579.41;;;19.79;100.00
19831;BME280;10076;52.008;4.708;2023-03-04T12:40:42;102561.06;;;17.10;100.00
19831;BME280;10076;52.008;4.708;2023-03-04T12:43:29;102569.19;;;16.32;100.00
19831;BME280;10076;52.008;4.708;2023-03-04T12:46:12;102566.28;;;15.28;100.00
19831;BME280;10076;52.008;4.708;2023-03-04T12:48:41;102556.00;;;14.95;100.00
19831;BME280;10076;52.008;4.708;2023-03-04T12:54:22;102562.00;;;15.54;100.00
19831;BME280;10076;52.008;4.708;2023-03-04T12:57:07;102553.78;;;15.71;100.00
19831;BME280;10076;52.008;4.708;2023-03-04T12:59:39;102550.03;;;15.19;100.00
19831;BME280;10076;52.008;4.708;2023-03-04T13:02:14;102549.53;;;14.85;100.00
19831;BME280;10076;52.008;4.708;2023-03-04T13:05:02;102547.03;;;14.25;100.00
19831;BME280;10076;52.008;4.708;2023-03-04T13:07:45;102543.59;;;14.07;100.00
19831;BME280;10076;52.008;4.708;2023-03-04T13:10:18;102543.13;;;14.01;100.00
19831;BME280;10076;52.008;4.708;2023-03-04T13:12:58;102535.72;;;14.06;100.00
19831;BME280;10076;52.008;4.708;2023-03-04T13:20:41;102537.19;;;13.51;100.00
19831;BME280;10076;52.008;4.708;2023-03-04T13:25:38;102528.53;;;13.48;100.00
19831;BME280;10076;52.008;4.708;2023-03-04T13:35:49;102516.78;;;16.82;100.00
19831;BME280;10076;52.008;4.708;2023-03-04T13:41:20;102525.81;;;18.91;100.00
19831;BME280;10076;52.008;4.708;2023-03-04T13:43:55;102521.97;;;17.69;100.00
19831;BME280;10076;52.008;4.708;2023-03-04T13:56:38;102512.94;;;14.74;100.00
19831;BME280;10076;52.008;4.708;2023-03-04T14:01:33;102517.91;;;14.08;100.00
19831;BME280;10076;52.008;4.708;2023-03-04T14:04:00;102503.78;;;14.37;100.00
19831;BME280;10076;52.008;4.708;2023-03-04T14:06:28;102513.25;;;15.12;100.00
19831;BME280;10076;52.008;4.708;2023-03-04T14:08:55;102505.19;;;17.19;100.00
19831;BME280;10076;52.008;4.708;2023-03-04T14:11:23;102510.69;;;18.58;100.00
19831;BME280;10076;52.008;4.708;2023-03-04T14:13:49;102505.66;;;19.31;100.00
19831;BME280;10076;52.008;4.708;2023-03-04T14:16:21;102493.66;;;20.71;100.00
19831;BME280;10076;52.008;4.708;2023-03-04T14:18:58;102506.88;;;20.83;98.03
19831;BME280;10076;52.008;4.708;2023-03-04T14:21:25;102492.44;;;20.03;100.00
19831;BME280;10076;52.008;4.708;2023-03-04T14:24:03;102495.69;;;19.11;100.00